KDEN/DEN METAR and TAF weather

Enter ICAO airport designator
Station Type Date Time Source
KDEN METAR 2020/12/05 23:53 UTC NOAA

KDEN 052353Z 20003KT 10SM CLR 07/M09 A3033 RMK AO2 SLP268 T00721094 10111 20067 56009


Station Type Date Time Source
KDEN Decoded METAR 2020/12/05 23:53 UTC NOAA

DENVER INTERNATIONAL AIRPORT, CO, United States (KDEN) 39-52N 104-40W 1640M
Dec 05, 2020 - 06:53 PM EST / 2020.12.05 2353 UTC
Wind: from the SSW (200 degrees) at 3 MPH (3 KT):0
Visibility: 10 mile(s):0
Sky conditions: clear
Temperature: 45.0 F (7.2 C)
Dew Point: 15.1 F (-9.4 C)
Relative Humidity: 29%
Pressure (altimeter): 30.33 in. Hg (1027 hPa)
Pressure tendency: 0.03 inches (0.9 hPa) lower than three hours ago
ob: KDEN 052353Z 20003KT 10SM CLR 07/M09 A3033 RMK AO2 SLP268 T00721094 10111 20067 56009
cycle: 0

Station Type Date Time Source
KDEN TAF 2020/12/05 21:03 UTC NOAA

TAF
AMD KDEN 052100Z 0521/0624 06007KT P6SM SKC
FM060200 22009KT P6SM FEW220
FM062100 05007KT P6SM FEW220

Example: see airport list